Time;durP1;ratioP1;P1;durP2;ratioP2;P2;SDS_P1;SDS_P2;PMS_P1;PMS_P2;Temp;Humidity;BMP_temperature;BMP_pressure;BME280_temperature;BME280_humidity;BME280_pressure;Samples;Min_cycle;Max_cycle;Signal;HPM_P1;HPM_P2
2022/05/01 00:00:54;;;;;;;19.70;8.37;;;;;;;7.98;100.00;-19375.16;5031657;28;20032;-68
2022/05/01 00:03:33;;;;;;;18.10;8.70;;;;;;;7.98;100.00;-19375.16;5032848;28;20110;-68
2022/05/01 00:06:04;;;;;;;18.50;8.73;;;;;;;7.99;100.00;-19375.41;5033862;28;20025;-69
2022/05/01 00:08:34;;;;;;;14.93;8.27;;;;;;;7.97;100.00;-19374.75;5037092;28;20059;-69
2022/05/01 00:11:00;;;;;;;18.23;8.97;;;;;;;7.96;100.00;-19374.63;5041841;28;20712;-68
2022/05/01 00:13:26;;;;;;;15.57;8.60;;;;;;;7.98;100.00;-19375.16;5033249;28;20123;-69
2022/05/01 00:15:52;;;;;;;18.90;9.17;;;;;;;7.96;100.00;-19374.63;5030989;28;20025;-68
2022/05/01 00:18:18;;;;;;;15.50;8.53;;;;;;;7.94;100.00;-19374.22;5031756;28;20068;-68
2022/05/01 00:20:45;;;;;;;16.10;9.73;;;;;;;7.93;100.00;-19373.97;5034380;28;20021;-68
2022/05/01 00:23:11;;;;;;;15.50;8.50;;;;;;;7.92;100.00;-19373.69;5036835;28;20029;-68
2022/05/01 00:25:40;;;;;;;16.60;8.47;;;;;;;7.97;100.00;-19374.75;5032111;28;20042;-68
2022/05/01 00:28:05;;;;;;;19.93;9.43;;;;;;;7.90;100.00;-19373.03;5043356;28;20438;-68
2022/05/01 00:30:31;;;;;;;18.73;8.87;;;;;;;7.88;100.00;-19372.50;5032183;28;20112;-68
2022/05/01 00:38:24;;;;;;;17.17;8.33;;;;;;;7.86;100.00;-19371.97;5040608;28;20106;-68
2022/05/01 00:40:51;;;;;;;19.27;8.60;;;;;;;7.79;100.00;-19370.13;5037497;28;20029;-68
2022/05/01 00:43:16;;;;;;;13.97;8.43;;;;;;;7.77;100.00;-19369.59;5043501;28;20051;-68
2022/05/01 00:45:42;;;;;;;17.27;9.37;;;;;;;7.74;100.00;-19368.94;5038851;28;20716;-68
2022/05/01 00:48:07;;;;;;;15.87;8.33;;;;;;;7.72;100.00;-19368.41;5046041;28;20033;-68
2022/05/01 00:50:33;;;;;;;18.97;8.70;;;;;;;7.71;100.00;-19368.03;5035239;28;20040;-68
2022/05/01 00:53:00;;;;;;;16.50;8.47;;;;;;;7.71;100.00;-19368.03;5042547;28;20031;-68
2022/05/01 00:55:25;;;;;;;17.43;9.03;;;;;;;7.76;100.00;-19369.47;5036337;28;20108;-68
2022/05/01 00:57:51;;;;;;;16.37;8.80;;;;;;;7.72;100.00;-19368.28;5048668;28;20031;-68
2022/05/01 01:00:18;;;;;;;17.57;8.60;;;;;;;7.71;100.00;-19368.03;5048990;28;20737;-68
2022/05/01 01:02:47;;;;;;;15.60;8.90;;;;;;;7.70;100.00;-19367.75;5043725;28;20041;-68
2022/05/01 01:05:13;;;;;;;15.27;8.80;;;;;;;7.64;100.00;-19366.44;5045686;28;20071;-68
2022/05/01 01:07:39;;;;;;;16.57;9.10;;;;;;;7.62;100.00;-19365.91;5044178;28;20033;-68
2022/05/01 01:10:05;;;;;;;17.90;8.63;;;;;;;7.62;100.00;-19365.91;5037588;28;20030;-68
2022/05/01 01:15:15;;;;;;;16.40;8.40;;;;;;;7.57;100.00;-19364.59;5032677;28;20729;-68
2022/05/01 01:17:42;;;;;;;16.23;9.00;;;;;;;7.56;100.00;-19364.31;5035679;28;20041;-68
2022/05/01 01:20:11;;;;;;;15.17;8.80;;;;;;;7.51;100.00;-19363.00;5044073;28;20457;-68
2022/05/01 01:22:40;;;;;;;14.80;8.83;;;;;;;7.49;100.00;-19362.47;5039204;28;20029;-68
2022/05/01 01:25:09;;;;;;;12.10;8.57;;;;;;;7.45;100.00;-19361.28;5034339;28;20037;-68
2022/05/01 01:27:35;;;;;;;17.77;8.70;;;;;;;7.44;100.00;-19361.16;5032958;28;20025;-68
2022/05/01 01:33:05;;;;;;;15.27;8.50;;;;;;;7.33;100.00;-19358.38;5051053;28;20059;-68
2022/05/01 01:35:34;;;;;;;21.00;10.30;;;;;;;7.25;100.00;-19356.25;5044705;28;20029;-68
2022/05/01 01:37:59;;;;;;;18.33;9.70;;;;;;;7.20;100.00;-19354.94;5055143;28;20066;-68
2022/05/01 01:40:35;;;;;;;19.60;10.60;;;;;;;7.15;100.00;-19353.63;5057609;28;20072;-68
2022/05/01 01:43:01;;;;;;;19.13;9.83;;;;;;;7.12;100.00;-19352.69;5053368;28;20044;-68
2022/05/01 01:45:28;;;;;;;20.67;10.30;;;;;;;7.11;100.00;-19352.44;5058661;28;20044;-68
2022/05/01 01:47:55;;;;;;;18.80;10.40;;;;;;;7.13;100.00;-19352.97;5047519;28;20048;-68
2022/05/01 01:50:21;;;;;;;17.57;10.00;;;;;;;7.11;100.00;-19352.44;5060041;28;20056;-68
2022/05/01 01:52:47;;;;;;;19.93;9.33;;;;;;;7.04;100.00;-19350.84;5052719;28;20080;-68
2022/05/01 01:55:16;;;;;;;17.30;9.90;;;;;;;6.96;100.00;-19348.75;5055436;28;20574;-68
2022/05/01 01:57:43;;;;;;;21.87;10.03;;;;;;;6.90;100.00;-19347.16;5063541;28;20129;-68
2022/05/01 02:00:09;;;;;;;18.70;10.07;;;;;;;6.74;100.00;-19342.94;5056335;28;20064;-68
2022/05/01 02:02:34;;;;;;;21.00;10.87;;;;;;;6.64;100.00;-19340.41;5059381;28;20029;-68
2022/05/01 02:05:00;;;;;;;20.43;10.80;;;;;;;6.60;100.00;-19339.22;5050317;28;20036;-68
2022/05/01 02:07:28;;;;;;;18.47;11.17;;;;;;;6.46;100.00;-19335.78;5040516;28;20036;-68
2022/05/01 02:09:53;;;;;;;24.00;11.73;;;;;;;6.35;100.00;-19332.88;5045416;28;20022;-68
2022/05/01 02:12:20;;;;;;;21.63;12.10;;;;;;;6.35;100.00;-19332.88;5034261;28;20040;-68
2022/05/01 02:14:45;;;;;;;22.17;12.17;;;;;;;6.29;100.00;-19331.28;5039914;28;20100;-68
2022/05/01 02:17:10;;;;;;;25.50;12.00;;;;;;;6.25;100.00;-19330.22;5040131;28;20033;-68
2022/05/01 02:19:36;;;;;;;23.00;12.47;;;;;;;6.25;100.00;-19330.22;5045160;28;20060;-68
2022/05/01 02:22:02;;;;;;;24.37;12.47;;;;;;;6.28;100.00;-19331.03;5041094;28;20017;-68
2022/05/01 02:24:30;;;;;;;19.87;11.50;;;;;;;-143.88;100.00;144958.81;5045324;28;20111;-68
2022/05/01 02:26:56;;;;;;;25.37;13.37;;;;;;;6.16;100.00;-19327.84;5037985;28;20021;-68
2022/05/01 02:29:21;;;;;;;23.17;12.30;;;;;;;6.03;100.00;-19324.41;5032537;28;20094;-68
2022/05/01 02:31:53;;;;;;;24.27;13.60;;;;;;;5.88;100.00;-19320.56;5032545;28;20064;-68
2022/05/01 02:34:18;;;;;;;;;;;;;;;5.79;100.00;-19318.19;5032552;28;20029;-68
2022/05/01 02:36:44;;;;;;;24.00;13.53;;;;;;;5.77;100.00;-19317.81;5045399;28;20003;-68
2022/05/01 02:39:09;;;;;;;24.07;13.23;;;;;;;5.73;100.00;-19316.75;5047636;28;20116;-68
2022/05/01 02:41:35;;;;;;;28.67;14.47;;;;;;;5.69;100.00;-19315.69;5036674;28;20024;-68
2022/05/01 02:44:00;;;;;;;26.20;14.97;;;;;;;5.66;100.00;-19314.88;5033585;28;20037;-68
2022/05/01 02:46:28;;;;;;;29.23;14.40;;;;;;;5.71;100.00;-19316.22;5041517;28;20041;-68
2022/05/01 02:48:54;;;;;;;26.37;14.63;;;;;;;5.69;100.00;-19315.69;5035114;28;20032;-68
2022/05/01 02:51:20;;;;;;;25.10;14.77;;;;;;;5.68;100.00;-19315.41;5039155;28;20106;-68
2022/05/01 02:53:45;;;;;;;26.87;14.43;;;;;;;5.61;100.00;-19313.56;5031083;28;20064;-68
2022/05/01 02:56:11;;;;;;;26.73;14.83;;;;;;;5.54;100.00;-19311.84;5047390;28;20029;-68
2022/05/01 02:58:36;;;;;;;25.63;13.70;;;;;;;5.51;100.00;-19310.91;5033601;28;20100;-68
2022/05/01 03:01:02;;;;;;;27.53;14.60;;;;;;;5.50;100.00;-19310.66;5047832;28;20045;-68
2022/05/01 03:03:28;;;;;;;25.73;14.33;;;;;;;5.45;100.00;-19309.31;5044481;28;20039;-69
2022/05/01 03:05:55;;;;;;;26.07;14.37;;;;;;;5.40;100.00;-19308.00;5040662;28;20462;-69
2022/05/01 03:08:21;;;;;;;23.30;14.03;;;;;;;5.42;100.00;-19308.53;5039956;28;20056;-69
2022/05/01 03:10:47;;;;;;;27.17;15.60;;;;;;;5.42;100.00;-19308.53;5036487;28;20029;-68
2022/05/01 03:13:12;;;;;;;30.67;15.90;;;;;;;5.47;100.00;-19310.00;5044054;28;20059;-68
2022/05/01 03:15:38;;;;;;;30.17;16.07;;;;;;;5.63;100.00;-19314.09;5042594;28;20070;-68
2022/05/01 03:23:32;;;;;;;25.60;14.83;;;;;;;6.08;100.00;-19325.75;5040083;28;20127;-68
2022/05/01 03:25:58;;;;;;;27.40;14.63;;;;;;;6.03;100.00;-19324.41;5036870;28;20028;-68
2022/05/01 03:28:24;;;;;;;29.23;15.20;;;;;;;6.12;100.00;-19326.78;5051049;28;20032;-68
2022/05/01 03:30:50;;;;;;;26.03;14.17;;;;;;;6.17;100.00;-19328.25;5035383;28;20041;-69
2022/05/01 03:33:16;;;;;;;24.13;13.33;;;;;;;6.19;100.00;-19328.66;5040637;28;20543;-68
2022/05/01 03:35:41;;;;;;;25.07;14.33;;;;;;;6.21;100.00;-19329.19;5042862;28;20036;-68
2022/05/01 03:38:07;;;;;;;23.97;14.50;;;;;;;6.29;100.00;-19331.16;5040250;28;20086;-68
2022/05/01 03:40:36;;;;;;;29.93;15.20;;;;;;;6.30;100.00;-19331.56;5042669;28;20017;-68
2022/05/01 03:43:03;;;;;;;23.97;14.20;;;;;;;6.32;100.00;-19332.09;5038746;28;20469;-69
2022/05/01 03:45:28;;;;;;;30.33;14.90;;;;;;;6.32;100.00;-19331.97;5033434;28;20074;-68
2022/05/01 03:47:54;;;;;;;25.30;14.67;;;;;;;6.34;100.00;-19332.63;5033840;28;20038;-69
2022/05/01 03:50:19;;;;;;;25.10;13.97;;;;;;;6.33;100.00;-19332.22;5046206;28;20067;-69
2022/05/01 03:52:45;;;;;;;25.13;14.47;;;;;;;6.29;100.00;-19331.16;5030844;28;20113;-69
2022/05/01 03:55:11;;;;;;;25.67;15.40;;;;;;;6.28;100.00;-19331.03;5033146;28;20033;-69
2022/05/01 03:57:37;;;;;;;27.27;14.00;;;;;;;6.29;100.00;-19331.16;5037467;28;20455;-69
2022/05/01 04:00:10;;;;;;;26.77;15.00;;;;;;;6.19;100.00;-19328.66;5042732;28;20022;-69
2022/05/01 04:02:42;;;;;;;27.57;16.13;;;;;;;6.19;100.00;-19328.66;5039866;28;20025;-69
2022/05/01 04:05:15;;;;;;;27.13;14.80;;;;;;;6.02;100.00;-19324.16;5032812;28;20037;-69
2022/05/01 04:07:41;;;;;;;29.70;15.37;;;;;;;6.01;100.00;-19323.88;5033466;28;20035;-69
2022/05/01 04:10:07;;;;;;;24.97;15.23;;;;;;;6.00;100.00;-19323.63;5031098;28;20035;-69
2022/05/01 04:12:41;;;;;;;27.83;16.10;;;;;;;6.01;100.00;-19324.03;5033152;28;20040;-69
2022/05/01 04:15:07;;;;;;;30.60;16.27;;;;;;;6.03;100.00;-19324.41;5035328;28;20057;-69
2022/05/01 04:17:38;;;;;;;32.03;15.50;;;;;;;6.13;100.00;-19327.06;5037625;28;20036;-69
2022/05/01 04:20:13;;;;;;;28.63;15.50;;;;;;;6.16;100.00;-19327.84;5047760;28;20029;-69
2022/05/01 04:22:43;;;;;;;28.47;15.73;;;;;;;6.22;100.00;-19329.44;5041844;28;20384;-69
2022/05/01 04:25:17;;;;;;;30.47;15.53;;;;;;;6.26;100.00;-19330.50;5038920;28;20029;-69
2022/05/01 04:27:47;;;;;;;26.40;15.43;;;;;;;6.26;100.00;-19330.50;5039178;28;21490;-69
2022/05/01 04:30:14;;;;;;;26.50;14.77;;;;;;;6.38;100.00;-19333.66;5034663;28;20164;-69
2022/05/01 04:32:57;;;;;;;27.70;14.90;;;;;;;6.45;100.00;-19335.53;5031433;28;20095;-69
2022/05/01 04:35:31;;;;;;;26.83;15.03;;;;;;;6.51;100.00;-19336.84;5042795;28;20081;-68
2022/05/01 04:38:02;;;;;;;23.10;14.27;;;;;;;6.47;100.00;-19336.06;5034494;28;20036;-69
2022/05/01 04:40:34;;;;;;;23.55;14.77;;;;;;;6.46;100.00;-19335.78;5028417;28;20056;-69
2022/05/01 04:43:14;;;;;;;26.42;14.90;;;;;;;6.51;100.00;-19336.97;5041068;28;20048;-69
2022/05/01 04:45:41;;;;;;;25.90;14.60;;;;;;;6.61;100.00;-19339.50;5037870;28;20036;-69
2022/05/01 04:48:08;;;;;;;27.73;14.80;;;;;;;6.63;100.00;-19340.00;5035872;28;20029;-68
2022/05/01 04:50:34;;;;;;;26.27;14.50;;;;;;;6.70;100.00;-19342.00;5041841;28;20458;-69
2022/05/01 04:53:01;;;;;;;30.60;14.07;;;;;;;6.80;100.00;-19344.50;5041659;28;20030;-69
2022/05/01 04:55:27;;;;;;;28.03;14.47;;;;;;;6.88;100.00;-19346.63;5040655;28;20132;-69
2022/05/01 04:57:53;;;;;;;25.87;14.13;;;;;;;7.01;100.00;-19350.06;5036101;28;20047;-69
2022/05/01 05:00:19;;;;;;;21.47;13.10;;;;;;;7.17;100.00;-19354.03;5039159;28;20024;-69
2022/05/01 05:02:50;;;;;;;23.60;14.00;;;;;;;7.28;100.00;-19357.06;5043860;28;20021;-68
2022/05/01 05:05:16;;;;;;;24.97;13.70;;;;;;;7.43;100.00;-19360.88;5034733;28;20053;-69
2022/05/01 05:07:42;;;;;;;25.77;13.00;;;;;;;7.55;100.00;-19364.06;5046787;28;20362;-68
2022/05/01 05:10:09;;;;;;;22.60;13.17;;;;;;;7.63;100.00;-19366.19;5030152;28;20036;-68
2022/05/01 05:12:36;;;;;;;21.23;12.63;;;;;;;7.68;100.00;-19367.22;5032766;28;20094;-68
2022/05/01 05:15:05;;;;;;;21.70;12.47;;;;;;;7.62;100.00;-19365.91;5034647;28;20053;-68
2022/05/01 05:17:33;;;;;;;22.87;13.23;;;;;;;7.57;100.00;-19364.59;5036956;28;20046;-69
2022/05/01 05:19:59;;;;;;;21.27;12.60;;;;;;;7.90;100.00;-19373.03;5042350;28;20044;-68
2022/05/01 05:22:24;;;;;;;19.80;12.03;;;;;;;8.04;100.00;-19376.72;5036820;28;20029;-68
2022/05/01 05:24:50;;;;;;;19.37;12.27;;;;;;;8.39;100.00;-19385.72;5029146;28;20029;-68
2022/05/01 05:27:17;;;;;;;19.73;12.13;;;;;;;8.72;100.00;-19394.41;5048582;28;20029;-68
2022/05/01 05:29:42;;;;;;;19.00;11.50;;;;;;;9.43;100.00;-19412.59;5050192;28;20058;-68
2022/05/01 05:32:08;;;;;;;18.47;10.13;;;;;;;9.78;100.00;-19421.81;5045202;28;20305;-68
2022/05/01 05:34:34;;;;;;;16.63;9.70;;;;;;;9.67;100.00;-19419.06;5038388;28;20028;-68
2022/05/01 05:36:59;;;;;;;16.93;10.07;;;;;;;9.89;100.00;-19424.59;5049795;28;20024;-68
2022/05/01 05:39:25;;;;;;;15.97;10.40;;;;;;;10.28;100.00;-19434.72;5042650;28;20059;-68
2022/05/01 05:41:50;;;;;;;16.07;9.87;;;;;;;10.43;100.00;-19438.69;5043053;28;20025;-68
2022/05/01 05:44:15;;;;;;;14.43;9.27;;;;;;;10.82;100.00;-19448.81;5035529;28;20440;-68
2022/05/01 05:46:41;;;;;;;14.97;9.30;;;;;;;10.36;100.00;-19436.84;5044093;28;20036;-68
2022/05/01 05:49:06;;;;;;;16.03;9.60;;;;;;;10.16;100.00;-19431.56;5037320;28;20025;-68
2022/05/01 05:51:32;;;;;;;19.40;9.50;;;;;;;10.29;100.00;-19435.00;5045311;28;20506;-68
2022/05/01 05:53:57;;;;;;;20.57;9.27;;;;;;;10.17;100.00;-19431.81;5035645;28;20017;-68
2022/05/01 05:56:23;;;;;;;17.93;8.90;;;;;;;10.18;100.00;-19432.22;5039508;28;20533;-68
2022/05/01 05:58:49;;;;;;;17.07;9.87;;;;;;;10.08;100.00;-19429.47;5044261;28;20033;-68
2022/05/01 06:01:15;;;;;;;15.83;9.30;;;;;;;9.86;100.00;-19423.94;5040427;28;20103;-68
2022/05/01 06:03:40;;;;;;;13.43;9.27;;;;;;;9.90;100.00;-19424.97;5035849;28;20033;-69
2022/05/01 06:06:06;;;;;;;14.17;9.57;;;;;;;10.03;100.00;-19428.16;5033215;28;20021;-68
2022/05/01 06:08:32;;;;;;;14.47;9.50;;;;;;;9.95;100.00;-19426.31;5035014;28;20037;-69
2022/05/01 06:10:57;;;;;;;18.13;9.20;;;;;;;9.82;100.00;-19422.75;5031197;28;20021;-68
2022/05/01 06:13:23;;;;;;;14.47;9.10;;;;;;;9.74;100.00;-19420.78;5033397;28;20116;-68
2022/05/01 06:15:48;;;;;;;14.33;8.83;;;;;;;9.91;100.00;-19425.13;5039077;28;20025;-69
2022/05/01 06:18:14;;;;;;;18.17;8.90;;;;;;;9.78;100.00;-19421.69;5049141;28;20746;-69
2022/05/01 06:20:40;;;;;;;15.23;8.90;;;;;;;9.93;100.00;-19425.78;5042185;28;20045;-68
2022/05/01 06:23:06;;;;;;;16.50;9.87;;;;;;;9.97;100.00;-19426.81;5050085;28;20094;-69
2022/05/01 06:25:32;;;;;;;13.63;8.90;;;;;;;10.24;100.00;-19433.69;5040742;28;20492;-68
2022/05/01 06:27:57;;;;;;;14.83;9.27;;;;;;;10.41;100.00;-19438.03;5035709;28;20028;-69
2022/05/01 06:30:22;;;;;;;15.00;9.20;;;;;;;10.51;100.00;-19440.66;5045542;28;20029;-68
2022/05/01 06:32:49;;;;;;;14.47;9.27;;;;;;;10.76;100.00;-19447.22;5034626;28;20153;-68
2022/05/01 06:35:16;;;;;;;22.67;9.70;;;;;;;10.64;100.00;-19443.94;5035894;28;20048;-68
2022/05/01 06:37:43;;;;;;;15.03;9.33;;;;;;;10.82;100.00;-19448.69;5040489;28;20465;-69
2022/05/01 06:40:09;;;;;;;15.87;8.83;;;;;;;11.03;100.00;-19454.22;5036228;28;20108;-68
2022/05/01 06:42:34;;;;;;;12.80;8.30;;;;;;;11.15;100.00;-19457.38;5032717;28;20108;-68
2022/05/01 06:45:00;;;;;;;17.60;8.47;;;;;;;11.17;100.00;-19457.75;5033287;28;20028;-68
2022/05/01 06:47:26;;;;;;;11.47;8.13;;;;;;;11.39;100.00;-19463.41;5033032;28;20025;-68
2022/05/01 06:49:51;;;;;;;13.37;8.30;;;;;;;11.31;100.00;-19461.31;5036055;28;20462;-68
2022/05/01 06:52:23;;;;;;;13.17;7.50;;;;;;;11.37;100.00;-19463.00;5033351;28;20040;-68
2022/05/01 06:54:50;;;;;;;13.23;7.78;;;;;;;11.63;100.00;-19469.59;5035156;28;20047;-68
2022/05/01 06:57:15;;;;;;;14.83;8.17;;;;;;;11.59;100.00;-19468.66;5034075;28;20429;-68
2022/05/01 06:59:40;;;;;;;13.27;7.80;;;;;;;11.56;100.00;-19467.88;5041512;28;20059;-68
2022/05/01 07:02:06;;;;;;;13.37;7.20;;;;;;;11.88;100.00;-19476.03;5037173;28;20037;-68
2022/05/01 07:04:31;;;;;;;10.97;7.03;;;;;;;11.64;100.00;-19469.97;5041648;28;20412;-68
2022/05/01 07:06:57;;;;;;;11.87;7.47;;;;;;;11.53;100.00;-19466.97;5042942;28;20422;-68
2022/05/01 07:09:22;;;;;;;13.73;7.30;;;;;;;11.69;100.00;-19471.16;5043082;28;20043;-68
2022/05/01 07:11:47;;;;;;;14.40;7.90;;;;;;;11.86;100.00;-19475.50;5040429;28;20163;-68
2022/05/01 07:14:13;;;;;;;11.33;7.47;;;;;;;11.73;100.00;-19472.34;5040083;28;20025;-68
2022/05/01 07:16:38;;;;;;;10.20;7.50;;;;;;;12.21;100.00;-19484.69;5040392;28;20362;-68
2022/05/01 07:19:03;;;;;;;10.53;6.63;;;;;;;12.05;100.00;-19480.50;5049739;28;20523;-68
2022/05/01 07:21:29;;;;;;;11.97;7.10;;;;;;;12.19;100.00;-19484.16;5044713;28;20028;-68
2022/05/01 07:23:55;;;;;;;12.10;6.93;;;;;;;12.12;100.00;-19482.22;5049315;28;20021;-69
2022/05/01 07:26:21;;;;;;;12.03;7.00;;;;;;;12.24;100.00;-19485.34;5043241;28;20473;-68
2022/05/01 07:28:47;;;;;;;12.57;6.80;;;;;;;12.21;100.00;-19484.69;5038240;28;20029;-68
2022/05/01 07:31:12;;;;;;;9.57;6.67;;;;;;;12.23;100.00;-19485.22;5047135;28;20037;-68
2022/05/01 07:33:38;;;;;;;11.83;6.77;;;;;;;12.56;100.00;-19493.63;5047119;28;20033;-68
2022/05/01 07:36:04;;;;;;;11.57;6.50;;;;;;;12.36;100.00;-19488.50;5051735;28;20090;-68
2022/05/01 07:38:30;;;;;;;11.63;6.83;;;;;;;12.26;100.00;-19486.00;5049243;28;20021;-68
2022/05/01 07:40:55;;;;;;;13.67;6.67;;;;;;;12.18;100.00;-19483.91;5041852;28;20027;-68
2022/05/01 07:43:20;;;;;;;11.63;7.30;;;;;;;12.16;100.00;-19483.25;5036634;28;20076;-68
2022/05/01 07:45:46;;;;;;;11.82;7.00;;;;;;;12.61;100.00;-19494.94;5051462;28;20503;-68
2022/05/01 07:48:11;;;;;;;12.68;7.30;;;;;;;12.79;100.00;-19499.66;5033504;28;20021;-68
2022/05/01 07:50:36;;;;;;;12.02;6.70;;;;;;;13.26;100.00;-19511.75;5036769;28;20034;-67
2022/05/01 07:53:02;;;;;;;12.13;6.85;;;;;;;13.18;100.00;-19509.78;5041387;28;20030;-68
2022/05/01 07:55:28;;;;;;;9.80;6.20;;;;;;;12.93;100.00;-19503.06;5037380;28;20040;-68
2022/05/01 07:57:53;;;;;;;16.17;6.90;;;;;;;12.82;100.00;-19500.44;5036425;28;20021;-68
2022/05/01 08:00:19;;;;;;;11.00;6.83;;;;;;;12.54;100.00;-19493.09;5032746;28;20500;-68
2022/05/01 08:05:29;;;;;;;9.43;6.93;;;;;;;12.42;100.00;-19490.09;5051863;28;20067;-68
2022/05/01 08:07:56;;;;;;;11.90;7.40;;;;;;;12.33;100.00;-19487.84;5048356;28;20025;-68
2022/05/01 08:10:21;;;;;;;12.33;7.70;;;;;;;12.43;100.00;-19490.22;5047294;28;20038;-68
2022/05/01 08:12:47;;;;;;;11.97;7.07;;;;;;;12.72;100.00;-19497.81;5047106;28;20033;-68
2022/05/01 08:15:17;;;;;;;9.60;6.70;;;;;;;12.84;100.00;-19500.84;5051492;28;20044;-68
2022/05/01 08:17:43;;;;;;;10.17;6.87;;;;;;;13.19;100.00;-19509.91;5052061;28;20024;-68
2022/05/01 08:22:52;;;;;;;9.82;6.22;;;;;;;13.54;100.00;-19518.81;5031373;28;20032;-68
2022/05/01 08:25:18;;;;;;;11.88;6.75;;;;;;;13.25;100.00;-19511.34;5031965;28;20382;-68
2022/05/01 08:27:43;;;;;;;12.82;7.38;;;;;;;13.13;100.00;-19508.31;5035911;28;20107;-68
2022/05/01 08:30:09;;;;;;;12.10;6.93;;;;;;;13.04;100.00;-19505.97;5041807;28;20530;-68
2022/05/01 08:32:34;;;;;;;10.60;6.50;;;;;;;13.04;100.00;-19505.97;5043753;28;20063;-68
2022/05/01 08:35:00;;;;;;;10.77;7.20;;;;;;;13.11;100.00;-19507.81;5042973;28;20063;-67
2022/05/01 08:37:25;;;;;;;12.65;6.97;;;;;;;13.51;100.00;-19518.03;5034251;28;20117;-68
2022/05/01 08:39:51;;;;;;;11.75;7.75;;;;;;;13.13;100.00;-19508.31;5035765;28;20100;-67
2022/05/01 08:42:16;;;;;;;13.15;7.75;;;;;;;13.36;100.00;-19514.22;5044379;28;20056;-68
2022/05/01 08:44:42;;;;;;;9.77;7.20;;;;;;;13.71;100.00;-19523.41;5037238;28;20028;-67
2022/05/01 08:47:39;;;;;;;12.07;7.38;;;;;;;13.76;100.00;-19524.72;5034171;28;20022;-68
2022/05/01 08:50:08;;;;;;;11.73;7.40;;;;;;;13.96;100.00;-19529.84;5040516;28;20116;-67
2022/05/01 08:52:36;;;;;;;11.70;6.93;;;;;;;14.35;100.00;-19539.91;5039656;28;20036;-67
2022/05/01 08:55:04;;;;;;;9.55;6.82;;;;;;;14.12;100.00;-19533.75;5038802;28;20111;-67
2022/05/01 08:57:33;;;;;;;10.75;7.25;;;;;;;14.33;100.00;-19539.28;5040020;28;20565;-68
2022/05/01 08:59:58;;;;;;;10.07;6.65;;;;;;;15.19;100.00;-19561.53;5043076;28;20033;-67
2022/05/01 09:02:25;;;;;;;12.63;7.10;;;;;;;15.19;100.00;-19561.53;5047639;28;20047;-68
2022/05/01 09:04:50;;;;;;;10.77;6.20;;;;;;;16.44;100.00;-19593.44;5040624;28;20032;-68
2022/05/01 09:07:15;;;;;;;10.57;6.63;;;;;;;17.26;100.00;-19614.59;5042145;28;20052;-68
2022/05/01 09:09:41;;;;;;;14.10;6.82;;;;;;;17.76;100.00;-19627.38;5037771;28;20025;-68
2022/05/01 09:14:53;;;;;;;8.52;5.15;;;;;;;20.53;74.83;-19698.22;5035201;28;20114;-68
2022/05/01 09:17:21;;;;;;;8.57;4.88;;;;;;;20.94;66.30;-19708.75;5032101;28;20068;-68
2022/05/01 09:19:49;;;;;;;8.35;4.80;;;;;;;19.54;74.36;-19673.00;5040743;28;20025;-68
2022/05/01 09:22:16;;;;;;;9.10;4.60;;;;;;;20.22;64.49;-19690.28;5044016;28;20026;-68
2022/05/01 09:24:42;;;;;;;9.38;5.30;;;;;;;19.01;84.20;-19659.44;5035955;28;20088;-68
2022/05/01 09:27:25;;;;;;;9.10;4.78;;;;;;;18.97;81.10;-19658.41;5028494;28;20576;-68
2022/05/01 09:30:30;;;;;;;7.75;4.65;;;;;;;19.59;81.38;-19674.28;5026332;28;20033;-68
2022/05/01 09:32:57;;;;;;;9.65;5.07;;;;;;;19.29;72.05;-19666.75;5031195;28;20065;-68
2022/05/01 09:35:22;;;;;;;7.82;5.05;;;;;;;19.02;86.25;-19659.84;5036801;28;20021;-68
2022/05/01 09:37:48;;;;;;;8.05;4.45;;;;;;;19.39;85.75;-19669.09;5037196;28;20457;-68
2022/05/01 09:40:29;;;;;;;6.55;4.15;;;;;;;20.47;71.53;-19696.94;5040356;28;20021;-68
2022/05/01 09:42:54;;;;;;;6.93;4.20;;;;;;;20.96;63.76;-19709.41;5034186;28;20082;-68
2022/05/01 09:45:31;;;;;;;6.82;4.38;;;;;;;20.10;63.03;-19687.31;5038988;28;20505;-68
2022/05/01 09:47:56;;;;;;;10.57;4.22;;;;;;;19.32;63.10;-19667.41;5047442;28;20021;-68
2022/05/01 09:50:40;;;;;;;6.05;4.15;;;;;;;19.05;67.07;-19660.38;5045998;28;20534;-67
2022/05/01 09:53:05;;;;;;;8.25;4.05;;;;;;;17.24;65.82;-19614.22;5050564;28;20033;-68
2022/05/01 09:55:31;;;;;;;7.75;3.63;;;;;;;17.22;83.15;-19613.56;5047476;28;20500;-68
2022/05/01 09:58:12;;;;;;;6.13;4.00;;;;;;;18.11;71.68;-19636.50;5049354;28;20082;-68
2022/05/01 10:00:45;;;;;;;5.28;3.28;;;;;;;17.92;63.66;-19631.56;5047429;28;20089;-68
2022/05/01 10:03:29;;;;;;;6.75;3.45;;;;;;;17.57;67.92;-19622.69;5049465;28;20029;-68
2022/05/01 10:05:57;;;;;;;7.55;3.90;;;;;;;16.47;75.33;-19594.22;5042797;28;20053;-68
2022/05/01 10:08:23;;;;;;;7.85;4.07;;;;;;;16.21;84.23;-19587.69;5039343;28;20028;-68
2022/05/01 10:10:54;;;;;;;6.57;3.67;;;;;;;17.43;71.38;-19618.25;5048322;28;20477;-68
2022/05/01 10:13:24;;;;;;;5.93;3.53;;;;;;;-145.18;71.38;-15295.59;5047456;28;20478;-68
2022/05/01 10:15:51;;;;;;;5.50;3.28;;;;;;;17.77;60.73;-19627.66;5045163;28;20029;-68
2022/05/01 10:18:18;;;;;;;7.53;3.40;;;;;;;17.95;59.13;-19632.22;5053811;28;20051;-68
2022/05/01 10:20:43;;;;;;;6.45;2.90;;;;;;;17.52;58.33;-19621.38;5038338;28;20485;-68
2022/05/01 10:23:10;;;;;;;5.97;3.40;;;;;;;18.00;64.02;-19633.66;5033611;28;20025;-68
2022/05/01 10:25:40;;;;;;;7.13;3.83;;;;;;;18.11;60.21;-19636.50;5042753;28;20028;-68
2022/05/01 10:28:46;;;;;;;6.32;3.80;;;;;;;17.93;67.19;-19631.81;5045727;28;20139;-68
2022/05/01 10:34:53;;;;;;;6.63;4.20;;;;;;;16.60;73.18;-19597.75;5037532;28;20106;-68
2022/05/01 10:37:27;;;;;;;6.85;3.58;;;;;;;17.38;74.18;-19617.72;5032755;28;20159;-68
2022/05/01 10:40:01;;;;;;;8.65;4.00;;;;;;;18.24;63.20;-19639.66;5037607;28;20047;-68
2022/05/01 10:42:48;;;;;;;5.90;3.72;;;;;;;18.42;59.71;-19644.47;5042399;28;20040;-68
2022/05/01 10:45:22;;;;;;;8.55;3.90;;;;;;;18.67;58.95;-19650.84;5035389;28;20484;-68
2022/05/01 10:47:53;;;;;;;6.80;3.70;;;;;;;18.73;60.13;-19652.41;5038883;28;20033;-68
2022/05/01 10:50:24;;;;;;;6.63;3.50;;;;;;;19.39;55.34;-19669.09;5034192;28;20607;-68
2022/05/01 10:53:11;;;;;;;6.93;3.88;;;;;;;19.20;55.32;-19664.41;5033427;28;20029;-68
2022/05/01 10:55:49;;;;;;;7.25;4.00;;;;;;;18.04;69.47;-19634.69;5045280;28;20483;-68
2022/05/01 10:58:30;;;;;;;7.35;3.42;;;;;;;17.94;72.94;-19632.09;5040799;28;20105;-68
2022/05/01 11:00:56;;;;;;;8.73;4.32;;;;;;;17.96;65.66;-19632.59;5050161;28;20033;-68
2022/05/01 11:03:32;;;;;;;7.07;3.67;;;;;;;17.79;69.62;-19628.31;5049370;28;20068;-68
2022/05/01 11:06:00;;;;;;;6.05;4.05;;;;;;;17.75;67.74;-19627.13;5052789;28;20039;-68
2022/05/01 11:08:37;;;;;;;6.93;3.80;;;;;;;16.64;70.86;-19598.66;5036399;28;20441;-68
2022/05/01 11:11:05;;;;;;;6.78;3.92;;;;;;;15.52;76.19;-19569.91;5033823;28;20024;-68
2022/05/01 11:13:38;;;;;;;8.13;4.20;;;;;;;15.68;85.00;-19574.09;5036790;28;20028;-68
2022/05/01 11:16:05;;;;;;;6.57;4.07;;;;;;;16.48;79.03;-19594.47;5034464;28;20021;-68
2022/05/01 11:18:36;;;;;;;6.95;3.92;;;;;;;15.87;77.88;-19578.94;5037450;28;20110;-68
2022/05/01 11:21:19;;;;;;;8.73;3.67;;;;;;;16.81;67.20;-19603.09;5034843;28;20032;-68
2022/05/01 11:23:45;;;;;;;7.25;4.13;;;;;;;16.91;73.46;-19605.72;5034586;28;20497;-68
2022/05/01 11:26:13;;;;;;;9.07;4.45;;;;;;;15.35;79.40;-19565.44;5032443;28;20029;-68
2022/05/01 11:28:47;;;;;;;8.90;4.40;;;;;;;15.50;80.49;-19569.38;5032940;28;20024;-68
2022/05/01 11:31:38;;;;;;;8.77;4.10;;;;;;;16.75;84.98;-19601.53;5033855;28;20029;-68
2022/05/01 11:34:32;;;;;;;8.02;4.07;;;;;;;15.93;65.59;-19580.38;5033637;28;20032;-68
2022/05/01 11:37:03;;;;;;;6.75;4.20;;;;;;;15.09;76.81;-19558.91;5034023;28;20042;-68
2022/05/01 11:39:50;;;;;;;7.75;4.40;;;;;;;15.13;75.79;-19559.97;5035722;28;20148;-68
2022/05/01 11:42:21;;;;;;;7.28;4.10;;;;;;;16.31;67.63;-19590.31;5028149;28;20039;-68
2022/05/01 11:44:48;;;;;;;6.40;4.05;;;;;;;16.87;67.34;-19604.69;5031937;28;20041;-68
2022/05/01 11:47:14;;;;;;;7.50;4.20;;;;;;;17.17;69.51;-19612.25;5034900;28;20028;-68